createdAt,value
2019-05-07T00:01:20.143Z,100651.36
2019-05-07T00:06:23.101Z,100652.33
2019-05-07T00:11:25.367Z,100651.41
2019-05-07T00:16:28.042Z,100643.41
2019-05-07T00:21:30.130Z,100643.89
2019-05-07T00:26:32.467Z,100642.41
2019-05-07T00:31:34.563Z,100647.49
2019-05-07T00:37:02.373Z,100646.06
2019-05-07T00:42:16.656Z,100650.56
2019-05-07T00:47:18.843Z,100645.92
2019-05-07T00:52:22.568Z,100645.72
2019-05-07T00:57:24.859Z,100641.23
2019-05-07T01:02:26.971Z,100648.59
2019-05-07T01:07:29.063Z,100651.72
2019-05-07T01:12:32.893Z,100645.66
2019-05-07T01:17:35.184Z,100646.78
2019-05-07T01:22:37.483Z,100640.30
2019-05-07T01:27:39.513Z,100638.32
2019-05-07T01:32:50.547Z,100635.09
2019-05-07T01:37:53.550Z,100639.70
2019-05-07T01:42:55.539Z,100642.47
2019-05-07T01:47:57.662Z,100640.16
2019-05-07T01:52:59.809Z,100639.60
2019-05-07T01:58:04.619Z,100635.77
2019-05-07T02:03:19.172Z,100638.20
2019-05-07T02:08:55.960Z,100646.01
2019-05-07T02:13:58.362Z,100645.45
2019-05-07T02:19:02.189Z,100647.10
2019-05-07T02:24:05.649Z,100649.92
2019-05-07T02:29:07.641Z,100652.09
2019-05-07T02:34:09.743Z,100650.70
2019-05-07T02:39:24.607Z,100645.60
2019-05-07T02:44:26.609Z,100648.04
2019-05-07T02:49:44.032Z,100643.54
2019-05-07T02:55:06.608Z,100638.06
2019-05-07T03:00:09.033Z,100636.92
2019-05-07T03:05:13.679Z,100637.27
2019-05-07T03:10:15.567Z,100636.69
2019-05-07T03:15:17.713Z,100635.77
2019-05-07T03:20:24.664Z,100635.19
2019-05-07T03:25:33.846Z,100635.58
2019-05-07T03:30:45.625Z,100639.09
2019-05-07T03:35:56.347Z,100640.02
2019-05-07T03:40:54.944Z,100639.81
2019-05-07T03:46:06.005Z,100641.34
2019-05-07T03:51:09.275Z,100639.09
2019-05-07T03:56:13.039Z,100638.45
2019-05-07T04:01:15.639Z,100636.20
2019-05-07T04:06:17.745Z,100647.49
2019-05-07T04:11:22.796Z,100647.91
2019-05-07T04:16:24.765Z,100650.69
2019-05-07T04:21:26.817Z,100653.77
2019-05-07T04:26:38.808Z,100661.63
2019-05-07T04:31:43.656Z,100660.61
2019-05-07T04:36:47.653Z,100659.96
2019-05-07T04:41:52.820Z,100668.66
2019-05-07T04:46:53.836Z,100678.16
2019-05-07T04:52:11.286Z,100677.52
2019-05-07T04:57:26.621Z,100677.48
2019-05-07T05:03:03.703Z,100688.58
2019-05-07T05:08:05.848Z,100695.14
2019-05-07T05:13:07.936Z,100696.70
2019-05-07T05:18:10.177Z,100704.36
2019-05-07T05:23:41.939Z,100718.45
2019-05-07T05:28:44.223Z,100728.19
2019-05-07T05:33:46.423Z,100730.53
2019-05-07T05:38:50.047Z,100732.86
2019-05-07T05:49:25.585Z,100745.00
2019-05-07T05:54:37.898Z,100747.66
2019-05-07T06:00:22.187Z,100750.58
2019-05-07T06:05:46.588Z,100750.82
2019-05-07T06:10:56.821Z,100749.23
2019-05-07T06:16:05.077Z,100757.09
2019-05-07T06:21:17.655Z,100758.16
2019-05-07T06:26:19.708Z,100766.64
2019-05-07T06:31:22.219Z,100771.28
2019-05-07T06:36:24.683Z,100767.02
2019-05-07T06:41:45.033Z,100773.80
2019-05-07T06:46:47.154Z,100781.48
2019-05-07T06:51:49.273Z,100785.39
2019-05-07T06:56:52.370Z,100784.28
2019-05-07T07:02:17.084Z,100789.77
2019-05-07T07:07:34.741Z,100782.56
2019-05-07T07:12:34.207Z,100782.88
2019-05-07T07:17:36.380Z,100785.67
2019-05-07T07:22:38.506Z,100777.43
2019-05-07T07:27:42.971Z,100778.24
2019-05-07T07:32:46.288Z,100772.11
2019-05-07T07:37:48.617Z,100770.34
2019-05-07T07:42:52.028Z,100769.45
2019-05-07T07:47:54.432Z,100774.59
2019-05-07T07:52:56.460Z,100775.67
2019-05-07T07:58:24.282Z,100777.13
2019-05-07T08:03:26.385Z,100774.97
2019-05-07T08:08:28.535Z,100768.31
2019-05-07T08:13:42.461Z,100777.45
2019-05-07T08:18:44.873Z,100770.42
2019-05-07T08:23:47.199Z,100765.07
2019-05-07T08:28:49.213Z,100760.99
2019-05-07T08:33:57.869Z,100761.49
2019-05-07T08:39:00.089Z,100763.99
2019-05-07T08:44:12.020Z,100763.23
2019-05-07T08:49:12.083Z,100756.21
2019-05-07T08:54:14.667Z,100760.00
2019-05-07T08:59:16.876Z,100755.61
2019-05-07T09:04:19.072Z,100755.43
2019-05-07T09:09:22.316Z,100745.57
2019-05-07T09:14:26.301Z,100744.70
2019-05-07T09:19:47.233Z,100745.70
2019-05-07T09:24:38.846Z,100735.82
2019-05-07T09:36:06.672Z,100738.00
2019-05-07T09:41:12.013Z,100733.94
2019-05-07T09:46:14.288Z,100731.45
2019-05-07T09:51:16.423Z,100726.63
2019-05-07T09:56:18.736Z,100735.02
2019-05-07T10:01:20.967Z,100733.13
2019-05-07T10:06:23.205Z,100723.04
2019-05-07T10:11:32.863Z,100712.40
2019-05-07T10:17:05.149Z,100714.98
2019-05-07T10:22:07.228Z,100704.39
2019-05-07T10:27:09.800Z,100700.25
2019-05-07T10:32:12.804Z,100700.41
2019-05-07T10:37:15.409Z,100695.77
2019-05-07T10:42:17.621Z,100696.05
2019-05-07T10:47:41.834Z,100688.74
2019-05-07T10:52:44.032Z,100680.02
2019-05-07T10:57:46.298Z,100682.84
2019-05-07T11:02:48.462Z,100684.88
2019-05-07T11:07:50.669Z,100683.89
2019-05-07T11:12:52.920Z,100677.51
2019-05-07T11:18:04.887Z,100676.82
2019-05-07T11:23:10.223Z,100666.41
2019-05-07T11:28:12.549Z,100663.55
2019-05-07T11:33:14.733Z,100650.63
2019-05-07T11:38:21.598Z,100640.52
2019-05-07T11:43:39.092Z,100648.25
2019-05-07T11:48:50.839Z,100645.58
2019-05-07T11:54:12.970Z,100639.19
2019-05-07T11:59:15.032Z,100632.08
2019-05-07T12:04:17.256Z,100630.58
2019-05-07T12:09:21.659Z,100631.70
2019-05-07T12:14:31.346Z,100624.52
2019-05-07T12:19:27.721Z,100625.19
2019-05-07T12:24:29.938Z,100616.64
2019-05-07T12:29:32.454Z,100619.81
2019-05-07T12:35:02.267Z,100622.80
2019-05-07T12:40:05.994Z,100621.78
2019-05-07T12:45:08.322Z,100622.59
2019-05-07T12:50:10.772Z,100622.77
2019-05-07T12:55:19.276Z,100614.19
2019-05-07T13:01:00.313Z,100598.75
2019-05-07T13:06:03.797Z,100605.66
2019-05-07T13:11:05.826Z,100601.52
2019-05-07T13:16:08.106Z,100604.40
2019-05-07T13:21:11.919Z,100600.32
2019-05-07T13:26:14.284Z,100606.63
2019-05-07T13:31:18.896Z,100601.86
2019-05-07T13:36:22.416Z,100593.86
2019-05-07T13:41:56.271Z,100592.09
2019-05-07T13:47:16.775Z,100584.89
2019-05-07T13:52:19.187Z,100578.25
2019-05-07T13:57:22.693Z,100572.03
2019-05-07T14:02:27.796Z,100566.32
2019-05-07T14:07:32.780Z,100560.95
2019-05-07T14:12:35.000Z,100556.56
2019-05-07T14:17:37.585Z,100562.27
2019-05-07T14:22:39.826Z,100557.91
2019-05-07T14:27:42.842Z,100560.61
2019-05-07T14:33:06.101Z,100554.55
2019-05-07T14:38:27.068Z,100547.49
2019-05-07T14:43:44.077Z,100547.84
2019-05-07T14:48:46.226Z,100538.59
2019-05-07T14:53:48.791Z,100537.06
2019-05-07T14:58:51.705Z,100533.03
2019-05-07T15:03:54.062Z,100531.48
2019-05-07T15:08:56.294Z,100537.56
2019-05-07T15:13:58.829Z,100536.39
2019-05-07T15:19:01.290Z,100537.05
2019-05-07T15:24:03.599Z,100539.93
2019-05-07T15:29:09.433Z,100545.13
2019-05-07T15:34:12.426Z,100533.72
2019-05-07T15:39:14.777Z,100523.22
2019-05-07T15:44:16.989Z,100521.08
2019-05-07T15:49:19.211Z,100525.80
2019-05-07T15:54:21.988Z,100516.21
2019-05-07T15:59:24.345Z,100515.22
2019-05-07T16:04:26.586Z,100515.73
2019-05-07T16:09:42.492Z,100511.34
2019-05-07T16:14:46.622Z,100511.17
2019-05-07T16:19:48.869Z,100511.03
2019-05-07T16:24:51.218Z,100504.64
2019-05-07T16:29:53.509Z,100503.11
2019-05-07T16:34:55.736Z,100503.45
2019-05-07T16:39:58.038Z,100498.39
2019-05-07T16:45:02.744Z,100494.37
2019-05-07T16:50:04.988Z,100496.05
2019-05-07T16:55:07.752Z,100497.39
2019-05-07T17:00:13.836Z,100495.56
2019-05-07T17:05:16.368Z,100485.80
2019-05-07T17:10:18.563Z,100487.98
2019-05-07T17:15:22.759Z,100493.88
2019-05-07T17:20:25.106Z,100487.98
2019-05-07T17:25:36.048Z,100485.13
2019-05-07T17:30:38.197Z,100486.80
2019-05-07T17:35:42.260Z,100485.61
2019-05-07T17:40:44.612Z,100491.31
2019-05-07T17:45:48.567Z,100485.28
2019-05-07T17:51:00.672Z,100484.09
2019-05-07T17:56:02.928Z,100483.73
2019-05-07T18:01:05.551Z,100479.85
2019-05-07T18:06:07.893Z,100479.88
2019-05-07T18:11:18.527Z,100480.00
2019-05-07T18:16:36.535Z,100474.80
2019-05-07T18:21:38.662Z,100473.89
2019-05-07T18:26:42.258Z,100475.23
2019-05-07T18:31:51.153Z,100486.30
2019-05-07T18:36:53.263Z,100478.25
2019-05-07T18:41:56.451Z,100468.84
2019-05-07T18:46:58.570Z,100468.84
2019-05-07T18:52:02.706Z,100476.53
2019-05-07T18:57:04.774Z,100477.16
2019-05-07T19:02:07.590Z,100485.22
2019-05-07T19:07:09.762Z,100480.98
2019-05-07T19:12:13.974Z,100485.95
2019-05-07T19:17:16.021Z,100495.46
2019-05-07T19:22:18.148Z,100495.59
2019-05-07T19:27:22.034Z,100487.34
2019-05-07T19:32:24.341Z,100487.45
2019-05-07T19:37:26.453Z,100483.27
2019-05-07T19:42:28.491Z,100478.95
2019-05-07T19:47:32.657Z,100480.72
2019-05-07T19:52:34.722Z,100477.68
2019-05-07T19:57:46.216Z,100474.80
2019-05-07T20:02:52.575Z,100461.73
2019-05-07T20:07:57.220Z,100464.72
2019-05-07T20:12:58.416Z,100461.66
2019-05-07T20:18:00.509Z,100462.72
2019-05-07T20:23:02.791Z,100455.30
2019-05-07T20:28:06.904Z,100455.23
2019-05-07T20:33:09.150Z,100457.70
2019-05-07T20:38:11.858Z,100450.13
2019-05-07T20:43:13.838Z,100445.08
2019-05-07T20:48:16.642Z,100450.57
2019-05-07T20:53:21.839Z,100439.80
2019-05-07T20:58:23.836Z,100438.89
2019-05-07T21:03:26.186Z,100434.41
2019-05-07T21:08:28.308Z,100432.38
2019-05-07T21:13:34.058Z,100426.38
2019-05-07T21:18:34.415Z,100422.03
2019-05-07T21:23:36.445Z,100428.98
2019-05-07T21:28:38.669Z,100425.36
2019-05-07T21:33:42.938Z,100420.77
2019-05-07T21:38:44.908Z,100414.02
2019-05-07T21:43:46.952Z,100419.44
2019-05-07T21:48:48.989Z,100414.97
2019-05-07T21:54:06.767Z,100412.72
2019-05-07T21:59:12.714Z,100408.67
2019-05-07T22:04:14.894Z,100406.11
2019-05-07T22:09:17.489Z,100404.40
2019-05-07T22:14:22.013Z,100399.42
2019-05-07T22:19:23.818Z,100391.93
2019-05-07T22:24:25.949Z,100387.62
2019-05-07T22:29:29.059Z,100388.53
2019-05-07T22:34:51.901Z,100390.41
2019-05-07T22:39:55.460Z,100381.41
2019-05-07T22:44:59.473Z,100363.88
2019-05-07T22:50:02.836Z,100358.16
2019-05-07T22:55:05.416Z,100354.64
2019-05-07T23:00:12.366Z,100343.94
2019-05-07T23:05:16.316Z,100337.02
2019-05-07T23:10:18.388Z,100326.91
2019-05-07T23:15:22.479Z,100323.73
2019-05-07T23:20:24.574Z,100316.30
2019-05-07T23:25:26.607Z,100315.00
2019-05-07T23:30:28.728Z,100310.45
2019-05-07T23:35:32.785Z,100313.73
2019-05-07T23:41:02.175Z,100314.73
2019-05-07T23:46:04.613Z,100311.72
2019-05-07T23:51:06.586Z,100307.91
2019-05-07T23:56:08.589Z,100293.97
